createdAt,value
2018-03-23T00:00:37.228Z,84.98
2018-03-23T00:01:47.300Z,84.59
2018-03-23T00:02:57.090Z,84.69
2018-03-23T00:04:06.898Z,84.78
2018-03-23T00:05:16.698Z,84.92
2018-03-23T00:06:26.552Z,84.98
2018-03-23T00:07:36.362Z,84.88
2018-03-23T00:08:46.437Z,84.69
2018-03-23T00:09:56.514Z,84.98
2018-03-23T00:11:06.040Z,84.88
2018-03-23T00:12:16.110Z,84.88
2018-03-23T00:13:25.663Z,84.78
2018-03-23T00:14:35.469Z,84.78
2018-03-23T00:15:45.536Z,84.88
2018-03-23T00:16:55.599Z,84.69
2018-03-23T00:18:05.133Z,84.78
2018-03-23T00:19:14.969Z,84.88
2018-03-23T00:20:24.778Z,84.78
2018-03-23T00:21:34.562Z,84.69
2018-03-23T00:22:44.351Z,84.88
2018-03-23T00:23:54.203Z,84.78
2018-03-23T00:25:04.329Z,84.98
2018-03-23T00:26:14.128Z,84.78
2018-03-23T00:27:23.937Z,84.69
2018-03-23T00:28:34.009Z,84.78
2018-03-23T00:29:43.861Z,84.69
2018-03-23T00:30:53.922Z,84.78
2018-03-23T00:32:03.449Z,85.17
2018-03-23T00:33:13.495Z,84.88
2018-03-23T00:34:23.573Z,84.88
2018-03-23T00:35:33.684Z,84.5
2018-03-23T00:36:43.738Z,84.5
2018-03-23T00:37:53.524Z,84.69
2018-03-23T00:39:03.079Z,84.59
2018-03-23T00:40:12.868Z,84.59
2018-03-23T00:41:22.674Z,84.5
2018-03-23T00:42:32.461Z,84.98
2018-03-23T00:43:42.513Z,84.5
2018-03-23T00:44:52.060Z,84.98
2018-03-23T00:46:02.133Z,85.07
2018-03-23T00:47:12.261Z,84.69
2018-03-23T00:48:22.121Z,84.59
2018-03-23T00:49:31.655Z,84.69
2018-03-23T00:50:41.727Z,84.78
2018-03-23T00:51:51.546Z,84.98
2018-03-23T00:53:01.602Z,84.5
2018-03-23T00:54:11.655Z,84.69
2018-03-23T00:55:21.715Z,84.59
2018-03-23T00:56:31.776Z,84.78
2018-03-23T00:57:41.565Z,84.59
2018-03-23T00:58:51.375Z,84.41
2018-03-23T01:00:01.173Z,84.59
2018-03-23T01:01:10.979Z,84.59
2018-03-23T01:02:20.765Z,84.5
2018-03-23T01:03:30.575Z,84.59
2018-03-23T01:04:40.161Z,84.69
2018-03-23T01:05:49.957Z,84.69
2018-03-23T01:06:59.745Z,84.59
2018-03-23T01:08:09.550Z,84.88
2018-03-23T01:09:19.417Z,84.59
2018-03-23T01:10:28.698Z,84.88
2018-03-23T01:11:37.961Z,84.59
2018-03-23T01:12:48.038Z,84.69
2018-03-23T01:13:57.837Z,84.69
2018-03-23T01:15:07.901Z,84.59
2018-03-23T01:16:17.702Z,84.88
2018-03-23T01:17:27.764Z,84.5
2018-03-23T01:18:37.811Z,84.5
2018-03-23T01:19:47.882Z,84.69
2018-03-23T01:20:57.945Z,84.69
2018-03-23T01:22:07.207Z,84.69
2018-03-23T01:23:17.278Z,84.69
2018-03-23T01:24:27.342Z,84.69
2018-03-23T01:25:37.145Z,84.69
2018-03-23T01:26:46.947Z,84.41
2018-03-23T01:27:57.046Z,84.59
2018-03-23T01:29:06.835Z,84.69
2018-03-23T01:30:16.114Z,84.69
2018-03-23T01:31:25.893Z,84.5
2018-03-23T01:32:35.425Z,84.78
2018-03-23T01:33:44.964Z,84.59
2018-03-23T01:34:54.747Z,84.59
2018-03-23T01:36:04.537Z,84.69
2018-03-23T01:37:14.335Z,84.59
2018-03-23T01:38:24.390Z,84.78
2018-03-23T01:39:34.184Z,84.88
2018-03-23T01:40:43.963Z,84.69
2018-03-23T01:41:54.033Z,84.59
2018-03-23T01:43:03.832Z,84.59
2018-03-23T01:44:13.360Z,84.69
2018-03-23T01:45:23.172Z,84.5
2018-03-23T01:46:33.245Z,84.98
2018-03-23T01:47:43.315Z,84.98
2018-03-23T01:48:52.854Z,84.78
2018-03-23T01:50:02.399Z,84.69
2018-03-23T01:51:12.513Z,84.59
2018-03-23T01:52:22.576Z,84.69
2018-03-23T01:53:32.624Z,84.69
2018-03-23T01:54:42.702Z,84.69
2018-03-23T01:55:52.492Z,84.78
2018-03-23T01:57:01.814Z,84.74
2018-03-23T01:58:11.613Z,84.69
2018-03-23T01:59:21.410Z,84.74
2018-03-23T02:00:31.204Z,84.65
2018-03-23T02:01:41.283Z,84.74
2018-03-23T02:02:51.356Z,84.65
2018-03-23T02:04:01.158Z,84.94
2018-03-23T02:05:11.235Z,84.59
2018-03-23T02:06:21.031Z,84.46
2018-03-23T02:07:30.564Z,84.55
2018-03-23T02:08:40.160Z,84.46
2018-03-23T02:09:50.218Z,84.55
2018-03-23T02:10:59.741Z,84.55
2018-03-23T02:12:09.285Z,84.46
2018-03-23T02:13:19.085Z,84.55
2018-03-23T02:14:28.871Z,84.84
2018-03-23T02:15:38.922Z,84.46
2018-03-23T02:16:48.987Z,84.74
2018-03-23T02:17:58.511Z,84.74
2018-03-23T02:19:08.289Z,84.65
2018-03-23T02:20:18.405Z,84.94
2018-03-23T02:21:28.196Z,84.84
2018-03-23T02:22:38.168Z,84.84
2018-03-23T02:23:48.218Z,84.84
2018-03-23T02:24:57.755Z,84.84
2018-03-23T02:26:07.836Z,84.74
2018-03-23T02:27:17.899Z,84.84
2018-03-23T02:28:27.944Z,84.84
2018-03-23T02:29:37.748Z,84.84
2018-03-23T02:30:47.562Z,84.84
2018-03-23T02:31:57.095Z,84.74
2018-03-23T02:33:07.183Z,84.98
2018-03-23T02:34:17.245Z,84.94
2018-03-23T02:35:27.310Z,84.94
2018-03-23T02:36:37.163Z,84.94
2018-03-23T02:37:46.978Z,84.84
2018-03-23T02:38:57.047Z,84.88
2018-03-23T02:40:07.124Z,84.88
2018-03-23T02:41:16.681Z,84.88
2018-03-23T02:42:26.260Z,84.78
2018-03-23T02:43:36.391Z,84.59
2018-03-23T02:44:46.465Z,84.59
2018-03-23T02:45:56.259Z,84.69
2018-03-23T02:47:06.097Z,84.41
2018-03-23T02:48:16.174Z,84.12
2018-03-23T02:49:25.990Z,84.5
2018-03-23T02:50:35.788Z,84.41
2018-03-23T02:51:45.862Z,84.41
2018-03-23T02:52:55.937Z,84.5
2018-03-23T02:54:06.042Z,84.5
2018-03-23T02:55:15.834Z,84.41
2018-03-23T02:56:24.851Z,84.59
2018-03-23T02:57:34.411Z,84.31
2018-03-23T02:58:44.221Z,84.36
2018-03-23T02:59:54.298Z,84.5
2018-03-23T03:01:04.436Z,84.41
2018-03-23T03:02:14.224Z,84.45
2018-03-23T03:03:24.280Z,84.55
2018-03-23T03:04:34.342Z,84.45
2018-03-23T03:05:44.397Z,84.64
2018-03-23T03:06:54.204Z,84.64
2018-03-23T03:38:28.778Z,80.44
2018-03-23T03:39:38.590Z,80.72
2018-03-23T03:40:48.629Z,81.76
2018-03-23T03:41:58.687Z,82.81
2018-03-23T03:43:08.476Z,83.37
2018-03-23T03:44:18.373Z,84.61
2018-03-23T03:45:28.197Z,84.8
2018-03-23T03:46:38.240Z,85.17
2018-03-23T03:47:48.305Z,85.93
2018-03-23T03:48:58.358Z,86.03
2018-03-23T03:50:08.415Z,85.88
2018-03-23T03:51:18.203Z,86.26
2018-03-23T03:52:28.243Z,86.16
2018-03-23T03:53:38.319Z,85.69
2018-03-23T03:54:47.861Z,85.88
2018-03-23T03:55:57.699Z,86.02
2018-03-23T03:57:07.748Z,85.55
2018-03-23T03:58:17.811Z,85.93
2018-03-23T03:59:27.893Z,85.83
2018-03-23T04:00:37.968Z,85.74
2018-03-23T04:01:48.093Z,85.64
2018-03-23T04:02:58.163Z,85.74
2018-03-23T04:04:08.226Z,85.64
2018-03-23T04:05:18.289Z,85.45
2018-03-23T04:06:28.103Z,85.59
2018-03-23T04:07:38.149Z,85.59
2018-03-23T04:08:48.222Z,85.97
2018-03-23T04:09:58.028Z,85.4
2018-03-23T04:11:08.109Z,85.87
2018-03-23T04:12:18.149Z,85.3
2018-03-23T04:13:28.286Z,85.78
2018-03-23T04:14:38.375Z,85.87
2018-03-23T04:15:48.189Z,85.3
2018-03-23T04:16:58.269Z,85.21
2018-03-23T04:18:08.085Z,85.4
2018-03-23T04:19:18.162Z,85.4
2018-03-23T04:20:27.961Z,85.21
2018-03-23T04:21:38.017Z,85.49
2018-03-23T04:22:48.079Z,85.3
2018-03-23T04:23:57.875Z,85.68
2018-03-23T04:25:07.194Z,85.4
2018-03-23T04:26:17.253Z,85.3
2018-03-23T04:27:27.052Z,85.4
2018-03-23T04:28:37.126Z,85.68
2018-03-23T04:29:46.925Z,85.49
2018-03-23T04:30:56.506Z,85.49
2018-03-23T04:32:06.578Z,85.49
2018-03-23T04:33:16.380Z,85.4
2018-03-23T04:34:26.450Z,85.4
2018-03-23T04:35:36.533Z,85.49
2018-03-23T04:36:46.640Z,85.44
2018-03-23T04:37:56.432Z,85.63
2018-03-23T04:39:06.493Z,85.21
2018-03-23T04:40:16.545Z,85.25
2018-03-23T04:41:26.629Z,85.16
2018-03-23T04:42:36.428Z,85.06
2018-03-23T04:43:46.473Z,85.06
2018-03-23T04:44:56.534Z,85.44
2018-03-23T04:46:06.306Z,85.59
2018-03-23T04:47:16.373Z,85.25
2018-03-23T04:48:26.173Z,85.25
2018-03-23T04:49:35.721Z,85.35
2018-03-23T04:50:45.766Z,85.21
2018-03-23T04:51:55.821Z,85.44
2018-03-23T04:53:05.879Z,85.4
2018-03-23T04:54:15.984Z,85.3
2018-03-23T04:55:25.792Z,85.21
2018-03-23T04:56:35.317Z,85.4
2018-03-23T04:57:45.697Z,85.3
2018-03-23T04:58:55.247Z,85.59
2018-03-23T05:00:04.771Z,85.49
2018-03-23T05:01:14.307Z,85.4
2018-03-23T05:02:24.388Z,85.59
2018-03-23T05:03:34.466Z,85.59
2018-03-23T05:04:44.277Z,85.21
2018-03-23T05:05:54.132Z,85.3
2018-03-23T05:07:04.202Z,85.68
2018-03-23T05:08:13.997Z,85.21
2018-03-23T05:09:23.785Z,85.21
2018-03-23T05:10:33.849Z,85.59
2018-03-23T05:11:43.651Z,85.49
2018-03-23T05:12:53.451Z,85.59
2018-03-23T05:14:03.260Z,85.4
2018-03-23T05:15:12.552Z,85.3
2018-03-23T05:16:22.619Z,85.21
2018-03-23T05:17:32.644Z,85.21
2018-03-23T05:18:42.439Z,85.4
2018-03-23T05:19:52.248Z,85.59
2018-03-23T05:21:02.042Z,85.59
2018-03-23T05:22:11.848Z,85.21
2018-03-23T05:23:21.641Z,85.11
2018-03-23T05:24:31.692Z,85.02
2018-03-23T05:25:41.478Z,85.16
2018-03-23T05:26:51.279Z,85.4
2018-03-23T05:28:01.327Z,85.11
2018-03-23T05:29:11.389Z,85.11
2018-03-23T05:30:21.205Z,85.53
2018-03-23T05:31:31.261Z,85.35
2018-03-23T05:32:41.399Z,85.4
2018-03-23T05:33:51.438Z,85.11
2018-03-23T05:35:01.547Z,84.87
2018-03-23T05:36:11.626Z,85.06
2018-03-23T05:37:21.685Z,84.78
2018-03-23T05:38:31.229Z,84.68
2018-03-23T05:39:41.032Z,84.78
2018-03-23T05:40:50.626Z,84.68
2018-03-23T05:42:00.162Z,84.49
2018-03-23T05:43:10.210Z,84.68
2018-03-23T05:44:20.018Z,84.78
2018-03-23T05:45:29.551Z,84.59
2018-03-23T05:46:39.132Z,84.68
2018-03-23T05:47:49.176Z,84.78
2018-03-23T05:48:58.986Z,84.97
2018-03-23T05:50:09.040Z,84.78
2018-03-23T05:51:19.119Z,84.78
2018-03-23T05:52:28.918Z,84.78
2018-03-23T05:53:38.193Z,84.78
2018-03-23T05:54:48.247Z,84.78
2018-03-23T05:55:58.040Z,84.78
2018-03-23T05:57:08.101Z,84.87
2018-03-23T05:58:17.895Z,84.59
2018-03-23T05:59:27.688Z,84.97
2018-03-23T06:00:37.743Z,84.78
2018-03-23T06:01:47.797Z,84.68
2018-03-23T06:02:57.869Z,84.97
2018-03-23T06:04:07.400Z,84.68
2018-03-23T06:05:17.198Z,84.68
2018-03-23T06:06:27.236Z,84.68
2018-03-23T06:07:37.125Z,84.97
2018-03-23T06:08:46.684Z,84.78
2018-03-23T06:09:56.800Z,84.78
2018-03-23T06:11:06.865Z,84.78
2018-03-23T06:12:16.413Z,84.97
2018-03-23T06:13:26.187Z,84.78
2018-03-23T06:14:36.265Z,84.78
2018-03-23T06:15:46.322Z,84.97
2018-03-23T06:16:56.138Z,84.87
2018-03-23T06:18:06.209Z,84.78
2018-03-23T06:19:16.018Z,84.78
2018-03-23T06:20:25.864Z,84.68
2018-03-23T06:21:35.424Z,84.59
2018-03-23T06:22:45.390Z,84.78
2018-03-23T06:23:55.601Z,84.72
2018-03-23T06:25:05.654Z,84.68
2018-03-23T06:26:15.709Z,84.53
2018-03-23T06:27:25.302Z,84.82
2018-03-23T06:28:35.354Z,84.63
2018-03-23T06:29:45.413Z,84.72
2018-03-23T06:30:55.461Z,84.82
2018-03-23T06:32:05.263Z,84.91
2018-03-23T06:33:15.135Z,84.72
2018-03-23T06:34:24.651Z,85.11
2018-03-23T06:35:34.459Z,85.01
2018-03-23T06:36:44.496Z,85.01
2018-03-23T06:37:54.292Z,85.01
2018-03-23T06:39:04.094Z,85.11
2018-03-23T06:40:14.151Z,85.11
2018-03-23T06:41:23.735Z,84.91
2018-03-23T06:42:33.952Z,85.11
2018-03-23T06:43:43.240Z,84.91
2018-03-23T06:44:53.040Z,85.01
2018-03-23T06:46:03.112Z,84.82
2018-03-23T06:47:13.246Z,84.72
2018-03-23T06:48:22.523Z,84.91
2018-03-23T06:49:32.370Z,85.01
2018-03-23T06:50:42.509Z,84.91
2018-03-23T06:51:52.285Z,84.72
2018-03-23T06:53:02.355Z,84.82
2018-03-23T06:54:12.151Z,85.2
2018-03-23T06:55:21.940Z,84.82
2018-03-23T06:56:32.010Z,84.91
2018-03-23T06:57:41.803Z,84.91
2018-03-23T06:58:51.335Z,85.01
2018-03-23T07:00:01.379Z,84.53
2018-03-23T07:01:11.430Z,84.63
2018-03-23T07:02:21.236Z,85.11
2018-03-23T07:03:30.760Z,84.91
2018-03-23T07:04:40.560Z,84.91
2018-03-23T07:05:50.351Z,84.72
2018-03-23T07:07:00.436Z,84.72
2018-03-23T07:08:10.284Z,84.72
2018-03-23T07:09:19.815Z,84.82
2018-03-23T07:10:29.596Z,84.86
2018-03-23T07:11:39.662Z,84.91
2018-03-23T07:12:49.441Z,84.72
2018-03-23T07:13:59.506Z,84.72
2018-03-23T07:15:09.292Z,84.25
2018-03-23T07:16:19.406Z,84.77
2018-03-23T07:17:29.016Z,84.72
2018-03-23T07:18:38.809Z,84.82
2018-03-23T07:19:48.887Z,84.86
2018-03-23T07:20:58.950Z,84.48
2018-03-23T07:22:09.022Z,84.67
2018-03-23T07:23:19.081Z,84.39
2018-03-23T07:24:28.895Z,84.67
2018-03-23T07:25:38.984Z,84.86
2018-03-23T07:26:48.813Z,84.29
2018-03-23T07:27:58.355Z,84.29
2018-03-23T07:29:08.145Z,84.48
2018-03-23T07:30:17.678Z,84.48
2018-03-23T07:31:27.732Z,84.48
2018-03-23T07:32:37.534Z,84.58
2018-03-23T07:33:47.333Z,84.39
2018-03-23T07:34:57.386Z,84.48
2018-03-23T07:36:07.447Z,84.67
2018-03-23T07:37:16.984Z,84.58
2018-03-23T07:38:26.775Z,84.48
2018-03-23T07:39:36.576Z,84.1
2018-03-23T07:40:46.138Z,84.58
2018-03-23T07:41:55.941Z,84.67
2018-03-23T07:43:05.210Z,84.39
2018-03-23T07:44:14.473Z,84.67
2018-03-23T07:45:24.273Z,84.67
2018-03-23T07:46:34.357Z,84.48
2018-03-23T07:47:44.198Z,84.58
2018-03-23T07:48:53.990Z,84.77
2018-03-23T07:50:04.047Z,84.86
2018-03-23T07:51:13.857Z,84.77
2018-03-23T07:52:23.923Z,85.05
2018-03-23T07:53:33.739Z,84.77
2018-03-23T07:54:43.937Z,84.77
2018-03-23T07:55:53.728Z,84.67
2018-03-23T07:57:03.532Z,84.95
2018-03-23T07:58:13.607Z,84.58
2018-03-23T07:59:23.668Z,84.58
2018-03-23T08:00:32.942Z,84.52
2018-03-23T08:01:43.043Z,84.62
2018-03-23T08:02:53.109Z,84.52
2018-03-23T08:04:03.198Z,84.24
2018-03-23T08:05:13.283Z,84.24
2018-03-23T08:06:23.356Z,84.14
2018-03-23T08:07:33.418Z,84.43
2018-03-23T08:08:43.469Z,84.33
2018-03-23T08:09:53.522Z,84.33
2018-03-23T08:11:03.603Z,84.33
2018-03-23T08:12:13.674Z,84.14
2018-03-23T08:13:23.723Z,84.05
2018-03-23T08:14:33.844Z,84.24
2018-03-23T08:15:43.710Z,84.14
2018-03-23T08:16:53.757Z,84.24
2018-03-23T08:18:03.809Z,84.43
2018-03-23T08:19:13.616Z,84.52
2018-03-23T08:20:23.686Z,84.33
2018-03-23T08:21:33.744Z,84.52
2018-03-23T08:22:43.545Z,84.24
2018-03-23T08:23:53.406Z,84.14
2018-03-23T08:25:03.477Z,83.52
2018-03-23T08:26:13.536Z,83.81
2018-03-23T08:27:23.342Z,83.71
2018-03-23T08:28:33.388Z,84.19
2018-03-23T08:29:43.502Z,84.09
2018-03-23T08:30:53.577Z,83.33
2018-03-23T08:32:03.651Z,83.52
2018-03-23T08:33:13.716Z,83.56
2018-03-23T08:34:23.792Z,84.04
2018-03-23T08:35:33.335Z,83.47
2018-03-23T08:36:43.402Z,83.56
2018-03-23T08:37:53.473Z,83.47
2018-03-23T08:39:03.287Z,83.47
2018-03-23T08:40:13.369Z,83.47
2018-03-23T08:41:23.428Z,83.18
2018-03-23T08:42:33.496Z,83.18
2018-03-23T08:43:43.023Z,83.18
2018-03-23T08:44:53.104Z,83.47
2018-03-23T08:46:03.226Z,83.09
2018-03-23T08:47:12.763Z,83.28
2018-03-23T08:48:22.569Z,83.13
2018-03-23T08:49:32.370Z,83.28
2018-03-23T08:50:42.186Z,83.51
2018-03-23T08:51:52.302Z,83.32
2018-03-23T08:53:02.376Z,83.41
2018-03-23T08:54:11.667Z,83.41
2018-03-23T08:55:21.746Z,83.32
2018-03-23T08:56:31.526Z,83.41
2018-03-23T08:57:41.579Z,83.51
2018-03-23T08:58:51.646Z,83.41
2018-03-23T09:00:01.456Z,83.17
2018-03-23T09:01:11.552Z,83.36
2018-03-23T09:02:21.086Z,82.6
2018-03-23T09:03:31.160Z,82.69
2018-03-23T09:04:41.063Z,82.6
2018-03-23T09:05:50.882Z,82.89
2018-03-23T09:07:00.952Z,83.36
2018-03-23T09:08:11.044Z,83.4
2018-03-23T09:09:20.633Z,83.12
2018-03-23T09:10:30.189Z,82.54
2018-03-23T09:11:40.006Z,82.92
2018-03-23T09:12:50.074Z,82.45
2018-03-23T09:13:59.612Z,83.12
2018-03-23T09:15:09.427Z,82.26
2018-03-23T09:16:19.242Z,82.35
2018-03-23T09:17:28.779Z,82.59
2018-03-23T09:18:38.598Z,82.3
2018-03-23T09:19:48.689Z,82.59
2018-03-23T09:20:58.778Z,82.3
2018-03-23T09:22:08.617Z,82.01
2018-03-23T09:23:18.687Z,81.86
2018-03-23T09:24:28.771Z,82.06
2018-03-23T09:25:38.843Z,81.29
2018-03-23T09:26:48.395Z,81.43
2018-03-23T09:27:58.196Z,81.24
2018-03-23T09:29:07.473Z,81.9
2018-03-23T09:30:17.573Z,82.38
2018-03-23T09:31:27.638Z,82.29
2018-03-23T09:32:37.449Z,82.29
2018-03-23T09:33:47.267Z,81.81
2018-03-23T09:34:57.076Z,81.9
2018-03-23T09:36:06.873Z,81.9
2018-03-23T09:37:16.514Z,82
2018-03-23T09:38:26.330Z,82.09
2018-03-23T09:39:35.916Z,82.09
2018-03-23T09:40:45.718Z,81.71
2018-03-23T09:41:55.511Z,81.9
2018-03-23T09:43:05.575Z,82.29
2018-03-23T09:44:15.140Z,81.43
2018-03-23T09:45:25.255Z,81.52
2018-03-23T09:46:35.337Z,81.66
2018-03-23T09:47:45.156Z,81.09
2018-03-23T09:48:55.233Z,80.99
2018-03-23T09:50:05.354Z,80.93
2018-03-23T09:51:14.979Z,81.13
2018-03-23T09:52:24.506Z,81.03
2018-03-23T09:53:34.058Z,81.22
2018-03-23T09:54:43.856Z,81.6
2018-03-23T09:55:53.941Z,81.7
2018-03-23T09:57:03.790Z,81.7
2018-03-23T09:58:13.934Z,81.6
2018-03-23T09:59:23.752Z,81.51
2018-03-23T10:00:33.828Z,81.7
2018-03-23T10:01:43.628Z,81.32
2018-03-23T10:02:53.483Z,81.89
2018-03-23T10:04:03.399Z,81.89
2018-03-23T10:05:13.685Z,81.65
2018-03-23T10:06:23.234Z,81.45
2018-03-23T10:07:33.049Z,81.26
2018-03-23T10:08:42.912Z,81.55
2018-03-23T10:09:53.055Z,81.16
2018-03-23T10:11:02.389Z,81.16
2018-03-23T10:12:12.286Z,81.07
2018-03-23T10:13:22.158Z,80.88
2018-03-23T10:14:32.304Z,81.45
2018-03-23T10:15:42.142Z,81.65
2018-03-23T10:16:52.223Z,81.93
2018-03-23T10:18:02.323Z,81.36
2018-03-23T10:19:12.166Z,82.41
2018-03-23T10:20:22.318Z,81.55
2018-03-23T10:21:31.852Z,82.51
2018-03-23T10:22:42.059Z,82.22
2018-03-23T10:23:51.894Z,81.45
2018-03-23T10:25:01.677Z,82.22
2018-03-23T10:26:11.810Z,81.84
2018-03-23T10:27:21.382Z,81.74
2018-03-23T10:28:31.457Z,81.45
2018-03-23T10:29:41.628Z,81.65
2018-03-23T10:30:51.725Z,81.55
2018-03-23T10:32:01.875Z,81.26
2018-03-23T10:33:11.684Z,81.26
2018-03-23T10:34:21.495Z,81.74
2018-03-23T10:35:31.455Z,81.26
2018-03-23T10:36:41.257Z,81.26
2018-03-23T10:37:51.404Z,81.16
2018-03-23T10:39:01.511Z,81.07
2018-03-23T10:40:11.616Z,81.36
2018-03-23T10:41:21.179Z,81.36
2018-03-23T10:42:31.236Z,81.16
2018-03-23T10:43:41.319Z,81.4
2018-03-23T10:44:51.372Z,81.4
2018-03-23T10:46:01.453Z,81.59
2018-03-23T10:47:11.514Z,81.11
2018-03-23T10:48:21.570Z,80.73
2018-03-23T10:49:30.868Z,80.82
2018-03-23T10:50:40.147Z,80.87
2018-03-23T10:51:50.235Z,80.77
2018-03-23T10:53:00.342Z,80.87
2018-03-23T10:54:10.471Z,80.87
2018-03-23T10:55:20.557Z,81.15
2018-03-23T10:56:30.627Z,81.25
2018-03-23T10:57:40.446Z,81.44
2018-03-23T10:58:50.510Z,80.96
2018-03-23T11:00:00.591Z,81.05
2018-03-23T11:01:10.715Z,81.34
2018-03-23T11:02:20.511Z,81.15
2018-03-23T11:03:30.600Z,81.63
2018-03-23T11:04:40.450Z,81.82
2018-03-23T11:05:50.270Z,81.34
2018-03-23T11:07:00.068Z,82.26
2018-03-23T11:08:09.859Z,82.26
2018-03-23T11:09:19.681Z,81.4
2018-03-23T11:10:29.480Z,81.4
2018-03-23T11:11:39.555Z,82.17
2018-03-23T11:12:50.189Z,82.35
2018-03-23T11:14:00.076Z,82.07
2018-03-23T11:15:10.105Z,82.17
2018-03-23T11:16:19.420Z,82.35
2018-03-23T11:17:29.574Z,81.49
2018-03-23T11:18:39.789Z,81.4
2018-03-23T11:19:49.936Z,81.78
2018-03-23T11:21:00.081Z,81.78
2018-03-23T11:22:09.955Z,81.78
2018-03-23T11:23:19.555Z,81.68
2018-03-23T11:24:29.891Z,81.49
2018-03-23T11:25:40.025Z,81.78
2018-03-23T11:26:49.948Z,81.97
2018-03-23T11:27:59.835Z,82.45
2018-03-23T11:29:09.522Z,82.45
2018-03-23T11:30:19.548Z,82.26
2018-03-23T11:31:29.848Z,82.26
2018-03-23T11:32:39.996Z,81.49
2018-03-23T11:33:50.192Z,81.88
2018-03-23T11:34:59.773Z,81.49
2018-03-23T11:36:09.932Z,81.54
2018-03-23T11:37:20.049Z,81.15
2018-03-23T11:38:30.158Z,81.15
2018-03-23T11:39:40.240Z,81.54
2018-03-23T11:40:50.803Z,81.54
2018-03-23T11:42:01.248Z,81.54
2018-03-23T11:43:11.337Z,81.44
2018-03-23T11:44:21.641Z,81.77
2018-03-23T11:45:32.092Z,81.38
2018-03-23T11:46:42.192Z,81.29
2018-03-23T11:47:52.377Z,81.25
2018-03-23T11:49:01.946Z,81.44
2018-03-23T11:50:12.109Z,81.57
2018-03-23T11:51:22.284Z,81.38
2018-03-23T11:52:32.127Z,81.48
2018-03-23T11:53:42.302Z,81.48
2018-03-23T11:54:52.377Z,81.29
2018-03-23T11:56:02.454Z,81.86
2018-03-23T11:57:12.291Z,81.52
2018-03-23T11:58:22.392Z,80.85
2018-03-23T11:59:32.446Z,80.94
2018-03-23T12:00:42.535Z,80.94
2018-03-23T12:01:52.361Z,81.52
2018-03-23T12:03:02.489Z,81.04
2018-03-23T12:04:12.302Z,81.23
2018-03-23T12:05:22.452Z,81.52
2018-03-23T12:06:32.553Z,81.33
2018-03-23T12:07:42.640Z,82.09
2018-03-23T12:08:52.440Z,81.81
2018-03-23T12:10:02.519Z,81.81
2018-03-23T12:11:12.626Z,81.71
2018-03-23T12:12:22.734Z,82.09
2018-03-23T12:13:32.815Z,81.71
2018-03-23T12:14:42.894Z,81.52
2018-03-23T12:15:52.444Z,81.9
2018-03-23T12:17:02.354Z,81.52
2018-03-23T12:18:12.446Z,82
2018-03-23T12:19:22.521Z,82.09
2018-03-23T12:20:32.596Z,81.81
2018-03-23T12:21:42.700Z,81.62
2018-03-23T12:22:52.776Z,82.19
2018-03-23T12:24:02.854Z,82.38
2018-03-23T12:25:12.960Z,81.9
2018-03-23T12:26:23.025Z,82.06
2018-03-23T12:27:32.916Z,82.53
2018-03-23T12:28:42.795Z,82.82
2018-03-23T12:29:52.630Z,82.97
2018-03-23T12:31:02.715Z,82.49
2018-03-23T12:32:12.788Z,82.78
2018-03-23T12:33:22.921Z,82.78
2018-03-23T12:34:33.012Z,82.45
2018-03-23T12:35:43.100Z,82.83
2018-03-23T12:36:52.916Z,82.54
2018-03-23T12:38:03.109Z,82.35
2018-03-23T12:39:13.382Z,82.74
2018-03-23T12:40:23.506Z,82.26
2018-03-23T12:41:33.326Z,82.45
2018-03-23T12:42:43.412Z,82.74
2018-03-23T12:43:53.488Z,83.06
2018-03-23T12:45:03.546Z,82.93
2018-03-23T12:46:13.380Z,82.45
2018-03-23T12:47:23.465Z,82.35
2018-03-23T12:48:33.552Z,83.03
2018-03-23T12:49:43.653Z,83.46
2018-03-23T12:50:53.836Z,83.84
2018-03-23T12:52:03.487Z,83.56
2018-03-23T12:53:13.314Z,83.17
2018-03-23T12:54:23.386Z,83.17
2018-03-23T12:55:33.484Z,83.27
2018-03-23T12:56:43.557Z,83.37
2018-03-23T12:57:53.875Z,83.08
2018-03-23T12:59:04.258Z,82.31
2018-03-23T13:00:14.378Z,82.6
2018-03-23T13:01:24.503Z,82.79
2018-03-23T13:02:34.635Z,82.79
2018-03-23T13:03:44.519Z,82.79
2018-03-23T13:04:54.653Z,82.31
2018-03-23T13:06:04.532Z,82.31
2018-03-23T13:07:14.369Z,82.51
2018-03-23T13:08:24.458Z,82.7
2018-03-23T13:09:34.672Z,82.7
2018-03-23T13:10:44.755Z,82.41
2018-03-23T13:11:54.585Z,82.41
2018-03-23T13:13:04.724Z,82.7
2018-03-23T13:16:55.235Z,82.89
2018-03-23T13:18:05.106Z,83.33
2018-03-23T13:19:15.192Z,83.8
2018-03-23T13:20:25.277Z,84.43
2018-03-23T13:21:35.357Z,84.81
2018-03-23T13:22:45.616Z,85
2018-03-23T13:23:55.967Z,85.53
2018-03-23T13:25:06.109Z,85.25
2018-03-23T13:26:15.660Z,85.3
2018-03-23T13:27:25.135Z,85.21
2018-03-23T13:28:35.342Z,85.49
2018-03-23T13:29:45.242Z,85.21
2018-03-23T13:30:55.072Z,85.21
2018-03-23T13:32:04.104Z,85.39
2018-03-23T13:33:14.189Z,85.45
2018-03-23T13:34:24.319Z,85.54
2018-03-23T13:35:34.407Z,84.97
2018-03-23T13:36:44.488Z,85.54
2018-03-23T13:37:54.591Z,85.45
2018-03-23T13:39:04.683Z,85.25
2018-03-23T13:40:14.837Z,85.25
2018-03-23T13:41:24.385Z,85.12
2018-03-23T13:42:34.492Z,85.35
2018-03-23T13:43:44.803Z,84.92
2018-03-23T13:44:54.874Z,85.31
2018-03-23T13:46:04.955Z,85.5
2018-03-23T13:47:15.055Z,85.78
2018-03-23T13:48:24.879Z,85.69
2018-03-23T13:49:34.684Z,85.46
2018-03-23T13:50:44.249Z,85.21
2018-03-23T13:51:54.101Z,85.74
2018-03-23T13:53:03.914Z,85.36
2018-03-23T13:54:13.988Z,85.74
2018-03-23T13:55:23.816Z,85.17
2018-03-23T13:56:33.361Z,85.17
2018-03-23T13:57:43.440Z,85.64
2018-03-23T13:58:53.507Z,85.64
2018-03-23T14:00:03.609Z,85.17
2018-03-23T14:01:13.723Z,85.36
2018-03-23T14:02:23.811Z,85.46
2018-03-23T14:03:33.397Z,85.17
2018-03-23T14:04:43.528Z,85.55
2018-03-23T14:05:53.336Z,85.84
2018-03-23T14:07:03.399Z,85.84
2018-03-23T14:08:13.226Z,85.22
2018-03-23T14:09:23.091Z,85.22
2018-03-23T14:10:32.952Z,85.32
2018-03-23T14:11:43.052Z,85.03
2018-03-23T14:12:53.130Z,85.03
2018-03-23T14:14:03.230Z,85.13
2018-03-23T14:15:13.364Z,84.84
2018-03-23T14:16:23.494Z,85.13
2018-03-23T14:17:33.297Z,85.03
2018-03-23T14:18:43.212Z,84.84
2018-03-23T14:19:53.012Z,85.03
2018-03-23T14:21:02.902Z,85.13
2018-03-23T14:22:12.719Z,84.84
2018-03-23T14:23:22.662Z,84.94
2018-03-23T14:24:32.522Z,84.94
2018-03-23T14:25:42.362Z,84.46
2018-03-23T14:26:52.445Z,84.88
2018-03-23T14:28:02.259Z,84.79
2018-03-23T14:29:12.082Z,84.79
2018-03-23T14:30:22.208Z,84.88
2018-03-23T14:31:31.757Z,84.79
2018-03-23T14:32:42.087Z,84.94
2018-03-23T14:33:52.230Z,84.79
2018-03-23T14:35:02.395Z,84.88
2018-03-23T14:36:12.207Z,84.79
2018-03-23T14:37:22.029Z,84.69
2018-03-23T14:38:31.597Z,84.31
2018-03-23T14:39:41.695Z,84.31
2018-03-23T14:40:51.764Z,84.5
2018-03-23T14:42:01.822Z,84.5
2018-03-23T14:43:11.381Z,84.31
2018-03-23T14:44:21.199Z,84.5
2018-03-23T14:45:30.950Z,84.41
2018-03-23T14:46:41.001Z,84.31
2018-03-23T14:47:51.106Z,84.5
2018-03-23T14:49:00.957Z,84.5
2018-03-23T14:50:10.776Z,84.22
2018-03-23T14:51:20.645Z,84.5
2018-03-23T14:52:30.803Z,84.31
2018-03-23T14:53:40.938Z,84.41
2018-03-23T14:54:50.533Z,84.41
2018-03-23T14:56:00.369Z,84.79
2018-03-23T14:57:09.650Z,84.5
2018-03-23T14:58:19.490Z,84.79
2018-03-23T14:59:29.367Z,84.69
2018-03-23T15:00:38.939Z,84.6
2018-03-23T15:01:49.048Z,84.55
2018-03-23T15:02:59.203Z,84.26
2018-03-23T15:04:09.018Z,84.26
2018-03-23T15:05:19.123Z,84.26
2018-03-23T15:06:29.358Z,84.45
2018-03-23T15:07:39.161Z,84.45
2018-03-23T15:08:48.974Z,84.55
2018-03-23T15:09:59.065Z,84.45
2018-03-23T15:11:09.162Z,84.74
2018-03-23T15:12:19.263Z,84.92
2018-03-23T15:13:29.345Z,84.83
2018-03-23T15:14:39.483Z,84.83
2018-03-23T15:15:49.567Z,85.02
2018-03-23T15:16:59.377Z,85.02
2018-03-23T15:18:09.198Z,84.92
2018-03-23T15:19:19.281Z,85.12
2018-03-23T15:20:29.362Z,85.12
2018-03-23T15:21:39.453Z,84.88
2018-03-23T15:22:49.727Z,85.02
2018-03-23T15:23:59.805Z,85.36
2018-03-23T15:25:09.611Z,85.08
2018-03-23T15:26:19.755Z,85.17
2018-03-23T15:27:29.573Z,85.36
2018-03-23T15:28:39.380Z,85.27
2018-03-23T15:29:49.473Z,85.36
2018-03-23T15:30:59.540Z,85.27
2018-03-23T15:32:09.121Z,85.08
2018-03-23T15:33:19.212Z,84.88
2018-03-23T15:34:28.767Z,85.27
2018-03-23T15:35:38.641Z,85.17
2018-03-23T15:36:48.718Z,84.98